Time;durP1;ratioP1;P1;durP2;ratioP2;P2;SDS_P1;SDS_P2;PMS_P1;PMS_P2;Temp;Humidity;BMP_temperature;BMP_pressure;BME280_temperature;BME280_humidity;BME280_pressure;Samples;Min_cycle;Max_cycle;Signal;HPM_P1;HPM_P2
2023/11/06 00:02:00;;;;;;;12.55;2.45;;;;;;;13.11;79.88;99529.66;4954865;29;20051;-68
2023/11/06 00:04:27;;;;;;;13.13;2.40;;;;;;;13.21;81.78;99523.56;4964660;28;20055;-68
2023/11/06 00:06:55;;;;;;;14.70;2.30;;;;;;;12.98;81.79;99534.44;4935946;29;20054;-62
2023/11/06 00:09:22;;;;;;;16.20;2.85;;;;;;;13.09;83.37;99529.22;4950410;28;20063;-63
2023/11/06 00:11:50;;;;;;;11.05;2.22;;;;;;;12.97;84.17;99534.81;4966758;28;20050;-62
2023/11/06 00:14:17;;;;;;;13.18;2.22;;;;;;;13.17;83.96;99540.06;4966318;28;20055;-62
2023/11/06 00:16:45;;;;;;;14.55;2.80;;;;;;;12.94;81.11;99533.56;4936371;29;20052;-61
2023/11/06 00:19:17;;;;;;;14.68;3.38;;;;;;;12.87;83.01;99532.56;4981692;28;20070;-61
2023/11/06 00:22:00;;;;;;;14.10;2.47;;;;;;;13.17;84.03;99542.84;4935532;29;20074;-62
2023/11/06 00:24:27;;;;;;;13.70;2.20;;;;;;;12.65;83.48;99533.19;4935833;29;20075;-62
2023/11/06 00:26:58;;;;;;;21.80;2.88;;;;;;;12.70;84.71;99527.41;4935909;29;20055;-64
2023/11/06 00:29:28;;;;;;;16.98;2.80;;;;;;;13.09;85.11;99518.94;4966870;28;20664;-61
2023/11/06 00:31:56;;;;;;;17.95;2.65;;;;;;;12.78;84.23;99521.69;4949204;29;20051;-62
2023/11/06 00:34:23;;;;;;;10.80;2.00;;;;;;;12.96;83.90;99520.19;4935143;29;20055;-62
2023/11/06 00:36:51;;;;;;;13.88;2.65;;;;;;;13.26;83.62;99523.28;4935989;29;20056;-63
2023/11/06 00:39:19;;;;;;;17.58;3.60;;;;;;;13.29;83.41;99520.59;4933947;29;20060;-62
2023/11/06 00:41:46;;;;;;;10.13;1.75;;;;;;;13.29;83.72;99528.09;4950635;29;20067;-62
2023/11/06 00:44:13;;;;;;;14.15;2.33;;;;;;;13.20;82.00;99531.06;4966644;28;20055;-62
2023/11/06 00:46:41;;;;;;;10.48;2.42;;;;;;;12.83;83.97;99534.47;4936186;29;20139;-63
2023/11/06 00:49:10;;;;;;;10.30;2.15;;;;;;;12.80;84.35;99537.91;4937416;29;20457;-64
2023/11/06 00:51:38;;;;;;;15.35;2.38;;;;;;;12.75;85.16;99527.94;4954053;29;20055;-63
2023/11/06 00:54:05;;;;;;;16.88;3.13;;;;;;;12.98;85.84;99528.09;4939484;29;20071;-62
2023/11/06 00:56:32;;;;;;;17.30;2.58;;;;;;;13.01;86.29;99533.72;4967147;28;20055;-62
2023/11/06 00:59:00;;;;;;;13.93;2.63;;;;;;;13.31;86.01;99532.13;4942834;29;20080;-63
2023/11/06 01:01:28;;;;;;;9.57;2.08;;;;;;;13.35;85.08;99543.25;4933972;29;20071;-61
2023/11/06 01:03:57;;;;;;;13.73;2.88;;;;;;;13.25;84.47;99535.53;4933086;29;20415;-62
2023/11/06 01:06:24;;;;;;;12.80;2.40;;;;;;;13.07;84.93;99532.34;4935650;29;20071;-63
2023/11/06 01:08:54;;;;;;;18.25;3.05;;;;;;;12.85;83.01;99537.66;4933113;29;20066;-62
2023/11/06 01:11:21;;;;;;;18.83;2.40;;;;;;;12.70;86.00;99539.25;4967692;28;20051;-61
2023/11/06 01:13:49;;;;;;;16.60;3.00;;;;;;;12.89;84.61;99536.59;4949727;29;20491;-63
2023/11/06 01:16:17;;;;;;;18.27;2.75;;;;;;;12.85;86.55;99548.72;4949932;29;20078;-62
2023/11/06 01:18:45;;;;;;;17.85;3.22;;;;;;;12.97;85.78;99546.66;4933656;29;20052;-62
2023/11/06 01:21:13;;;;;;;16.50;2.90;;;;;;;12.81;86.51;99545.88;4965578;28;20584;-62
2023/11/06 01:23:40;;;;;;;14.50;2.83;;;;;;;12.90;85.36;99538.19;4950009;28;20051;-61
2023/11/06 01:26:32;;;;;;;20.30;3.15;;;;;;;13.15;85.77;99539.63;4935161;29;20055;-64
2023/11/06 01:28:59;;;;;;;19.90;2.72;;;;;;;12.98;83.72;99553.00;4935627;29;20454;-62
2023/11/06 01:31:28;;;;;;;17.10;2.45;;;;;;;12.97;84.32;99554.94;4935291;29;20050;-62
2023/11/06 01:33:55;;;;;;;17.02;2.38;;;;;;;13.08;85.90;99564.34;4966191;28;20051;-62
2023/11/06 01:36:23;;;;;;;14.32;2.35;;;;;;;13.22;85.92;99564.69;4934000;29;20066;-61
2023/11/06 01:38:50;;;;;;;13.40;2.60;;;;;;;13.24;85.51;99572.63;4965587;28;20047;-62
2023/11/06 01:41:17;;;;;;;18.13;2.03;;;;;;;12.74;86.14;99570.56;4934102;29;20058;-61
2023/11/06 01:43:44;;;;;;;14.90;2.97;;;;;;;12.84;86.87;99577.50;4934833;29;20062;-63
2023/11/06 01:46:12;;;;;;;14.35;2.67;;;;;;;13.00;86.82;99579.13;4934322;29;20051;-62
2023/11/06 01:48:39;;;;;;;16.42;3.22;;;;;;;13.14;86.89;99578.69;4933999;29;20063;-62
2023/11/06 01:51:08;;;;;;;15.68;2.53;;;;;;;13.27;85.78;99571.88;4953082;29;20047;-62
2023/11/06 01:53:36;;;;;;;19.00;2.85;;;;;;;13.41;85.52;99575.81;4968835;28;20406;-62
2023/11/06 01:56:04;;;;;;;22.40;2.97;;;;;;;13.11;85.70;99571.91;4938534;29;20063;-62
2023/11/06 01:58:32;;;;;;;15.18;2.60;;;;;;;13.13;86.60;99575.13;4934839;29;20047;-70
2023/11/06 02:01:00;;;;;;;15.98;2.80;;;;;;;13.05;86.93;99576.13;4952168;28;20055;-70
2023/11/06 02:03:28;;;;;;;14.52;2.90;;;;;;;12.85;86.77;99588.19;4937186;29;20055;-70
2023/11/06 02:05:55;;;;;;;18.45;2.95;;;;;;;13.04;85.81;99587.53;4946879;29;20059;-69
2023/11/06 02:08:23;;;;;;;13.18;2.40;;;;;;;13.03;85.36;99592.25;4945321;29;20074;-69
2023/11/06 02:10:50;;;;;;;22.88;3.25;;;;;;;13.05;85.63;99598.25;4950018;29;20360;-71
2023/11/06 02:13:20;;;;;;;17.35;2.90;;;;;;;13.02;86.38;99595.38;4933726;29;20052;-71
2023/11/06 02:15:48;;;;;;;17.20;3.40;;;;;;;13.02;87.17;99593.41;4918690;29;20076;-70
2023/11/06 02:18:15;;;;;;;18.55;3.13;;;;;;;13.19;87.30;99578.41;4918971;29;20063;-71
2023/11/06 02:20:42;;;;;;;14.07;2.88;;;;;;;13.14;86.39;99585.03;4918952;29;20059;-70
2023/11/06 02:23:09;;;;;;;15.10;2.60;;;;;;;13.15;85.89;99588.59;4949590;29;20055;-71
2023/11/06 02:25:38;;;;;;;22.45;3.45;;;;;;;13.25;85.06;99582.53;4918888;29;20068;-69
2023/11/06 02:28:05;;;;;;;21.38;3.20;;;;;;;13.01;86.28;99596.50;4935722;29;20387;-70
2023/11/06 02:30:32;;;;;;;15.93;2.67;;;;;;;13.09;86.63;99593.56;4969068;28;20052;-69
2023/11/06 02:33:00;;;;;;;17.05;2.45;;;;;;;13.08;86.39;99591.97;4948624;29;20055;-70
2023/11/06 02:35:27;;;;;;;21.30;3.38;;;;;;;13.02;86.34;99600.91;4953452;29;20144;-69
2023/11/06 02:37:54;;;;;;;17.55;2.90;;;;;;;13.07;86.56;99604.22;4936376;29;20055;-69
2023/11/06 02:40:22;;;;;;;17.08;2.97;;;;;;;13.11;86.72;99604.31;4936882;29;20055;-70
2023/11/06 02:42:49;;;;;;;15.48;2.72;;;;;;;13.00;84.66;99608.72;4951189;29;20070;-72
2023/11/06 02:45:17;;;;;;;19.77;3.45;;;;;;;13.14;86.02;99614.66;4937927;29;20075;-70
2023/11/06 02:47:45;;;;;;;19.63;2.67;;;;;;;13.12;86.11;99612.25;4952874;28;20063;-71
2023/11/06 02:50:12;;;;;;;17.65;3.45;;;;;;;12.91;86.29;99608.91;4937136;29;20732;-69
2023/11/06 02:52:40;;;;;;;16.25;2.85;;;;;;;12.86;86.83;99622.97;4968974;28;20056;-70
2023/11/06 02:55:08;;;;;;;19.88;3.25;;;;;;;12.97;87.86;99614.97;4943673;29;20074;-70
2023/11/06 02:57:35;;;;;;;19.33;3.53;;;;;;;12.93;86.44;99620.41;4962219;28;20060;-70
2023/11/06 03:00:06;;;;;;;15.88;2.85;;;;;;;12.69;87.85;99617.78;4937106;29;20522;-71
2023/11/06 03:02:35;;;;;;;19.77;2.88;;;;;;;12.85;87.82;99615.06;4959670;28;20440;-70
2023/11/06 03:05:03;;;;;;;15.85;3.28;;;;;;;12.81;87.88;99620.47;4942973;29;20051;-70
2023/11/06 03:07:31;;;;;;;28.20;3.58;;;;;;;12.89;88.05;99619.50;4955709;29;20067;-70
2023/11/06 03:09:59;;;;;;;15.52;2.75;;;;;;;12.79;89.15;99614.50;4955763;29;20162;-70
2023/11/06 03:12:26;;;;;;;16.63;2.20;;;;;;;12.65;89.57;99624.38;4955662;28;20051;-70
2023/11/06 03:14:53;;;;;;;16.50;2.45;;;;;;;12.64;88.56;99622.78;4970767;28;20059;-69
2023/11/06 03:17:20;;;;;;;15.95;2.92;;;;;;;12.87;88.58;99624.56;4946758;29;20074;-70
2023/11/06 03:19:48;;;;;;;18.98;3.33;;;;;;;13.21;88.87;99629.47;4936263;29;20055;-69
2023/11/06 03:22:15;;;;;;;20.70;2.95;;;;;;;13.09;85.76;99628.75;4966255;28;20052;-69
2023/11/06 03:24:43;;;;;;;15.10;2.78;;;;;;;13.01;87.78;99624.94;4936785;29;20050;-69
2023/11/06 03:27:10;;;;;;;22.25;3.15;;;;;;;13.02;87.50;99631.31;4966820;28;20052;-70
2023/11/06 03:29:38;;;;;;;24.67;3.17;;;;;;;12.80;87.05;99635.44;4936221;29;20064;-70
2023/11/06 03:32:05;;;;;;;20.85;3.35;;;;;;;13.25;87.99;99635.84;4936075;29;20047;-70
2023/11/06 03:34:33;;;;;;;22.30;3.38;;;;;;;13.24;86.80;99636.22;4936352;29;20518;-70
2023/11/06 03:37:01;;;;;;;14.90;3.10;;;;;;;12.88;86.33;99642.78;4936535;29;20051;-71
2023/11/06 03:39:29;;;;;;;16.33;3.05;;;;;;;12.94;86.91;99633.06;4967252;28;20064;-70
2023/11/06 03:41:56;;;;;;;17.40;3.03;;;;;;;12.94;87.13;99635.00;4934010;29;20063;-70
2023/11/06 03:44:25;;;;;;;18.83;3.05;;;;;;;12.97;86.17;99639.84;4937195;28;20055;-70
2023/11/06 03:46:52;;;;;;;19.50;3.17;;;;;;;12.97;87.30;99634.31;4950247;29;20075;-70
2023/11/06 03:49:22;;;;;;;21.92;3.53;;;;;;;12.85;88.10;99632.41;4942522;29;20047;-70
2023/11/06 03:51:49;;;;;;;15.75;3.28;;;;;;;12.90;88.33;99640.44;4969655;28;20047;-70
2023/11/06 03:54:17;;;;;;;24.40;3.40;;;;;;;12.59;87.22;99636.84;4955932;28;20056;-70
2023/11/06 03:56:44;;;;;;;14.05;2.80;;;;;;;12.85;88.76;99634.41;4948359;29;20048;-69
2023/11/06 03:59:11;;;;;;;21.30;2.90;;;;;;;12.63;89.02;99644.06;4936324;29;20047;-70
2023/11/06 04:01:38;;;;;;;23.05;3.83;;;;;;;12.68;87.73;99632.75;4966583;28;20051;-70
2023/11/06 04:04:06;;;;;;;15.73;2.75;;;;;;;12.99;88.74;99623.72;4936273;29;20388;-69
2023/11/06 04:06:33;;;;;;;22.63;3.30;;;;;;;12.71;86.79;99634.00;4997970;28;20063;-69
2023/11/06 04:09:01;;;;;;;23.38;3.42;;;;;;;12.92;89.39;99638.13;4955664;28;20051;-70
2023/11/06 04:11:28;;;;;;;22.23;3.53;;;;;;;12.78;88.05;99636.97;4954741;29;20082;-71
2023/11/06 04:13:56;;;;;;;20.45;3.28;;;;;;;12.70;88.59;99646.22;4955051;29;20055;-70
2023/11/06 04:16:24;;;;;;;17.73;3.40;;;;;;;12.54;88.90;99646.16;4954217;29;20059;-71
2023/11/06 04:18:51;;;;;;;21.55;2.92;;;;;;;12.48;89.75;99637.31;4953870;29;20066;-70
2023/11/06 04:21:18;;;;;;;25.63;4.32;;;;;;;12.44;89.93;99647.50;4954861;28;20055;-70
2023/11/06 04:23:46;;;;;;;22.42;3.20;;;;;;;12.56;90.52;99656.88;4955202;28;20388;-70
2023/11/06 04:26:13;;;;;;;15.27;2.85;;;;;;;12.66;89.60;99654.41;4955204;29;20054;-70
2023/11/06 04:28:40;;;;;;;19.33;3.13;;;;;;;12.28;88.02;99660.44;4946975;29;20051;-70
2023/11/06 04:31:08;;;;;;;16.67;3.05;;;;;;;12.22;89.97;99663.78;4935565;29;20073;-69
2023/11/06 04:33:35;;;;;;;19.42;3.45;;;;;;;12.25;92.49;99660.31;4935620;29;20063;-70
2023/11/06 04:36:03;;;;;;;20.60;3.78;;;;;;;12.65;93.07;99671.34;4936042;29;20062;-70
2023/11/06 04:38:31;;;;;;;19.17;3.00;;;;;;;12.87;90.60;99668.78;4934510;29;20173;-70
2023/11/06 04:40:58;;;;;;;14.20;3.30;;;;;;;13.02;88.84;99686.59;4935582;29;20063;-70
2023/11/06 04:43:25;;;;;;;18.05;2.90;;;;;;;12.79;89.43;99686.34;4935595;29;20060;-70
2023/11/06 04:45:52;;;;;;;17.50;3.20;;;;;;;12.80;89.02;99684.38;4935984;29;20063;-68
2023/11/06 04:48:20;;;;;;;22.42;3.47;;;;;;;12.85;88.61;99689.66;4935043;29;20063;-71
2023/11/06 04:50:47;;;;;;;19.58;3.47;;;;;;;12.92;88.29;99693.41;4936654;29;20463;-70
2023/11/06 04:53:14;;;;;;;19.38;3.28;;;;;;;13.16;88.76;99689.75;4966043;28;20054;-69
2023/11/06 04:55:42;;;;;;;21.55;3.22;;;;;;;13.09;88.34;99693.09;4946643;29;20055;-69
2023/11/06 04:58:09;;;;;;;22.10;2.80;;;;;;;13.29;88.27;99691.25;4938946;29;20062;-70
2023/11/06 05:00:36;;;;;;;16.90;3.45;;;;;;;13.02;87.82;99684.63;4949998;29;20055;-70
2023/11/06 05:03:04;;;;;;;21.90;3.88;;;;;;;13.08;88.18;99685.97;4934131;29;20055;-70
2023/11/06 05:05:31;;;;;;;18.02;3.20;;;;;;;12.98;89.53;99682.91;4934457;29;20055;-70
2023/11/06 05:07:58;;;;;;;20.48;3.08;;;;;;;12.80;88.75;99687.94;4933492;29;20082;-70
2023/11/06 05:10:28;;;;;;;21.00;3.88;;;;;;;12.88;88.47;99689.75;4933738;29;20060;-71
2023/11/06 05:12:55;;;;;;;13.70;2.67;;;;;;;12.80;90.08;99684.38;4936088;28;20410;-71
2023/11/06 05:15:24;;;;;;;21.63;3.50;;;;;;;13.11;90.37;99693.56;4935191;29;20059;-69
2023/11/06 05:17:52;;;;;;;13.23;2.78;;;;;;;12.99;90.87;99695.59;4951320;28;20067;-70
2023/11/06 05:20:20;;;;;;;16.27;2.88;;;;;;;12.88;88.53;99689.75;4933878;29;20064;-69
2023/11/06 05:22:47;;;;;;;15.80;2.55;;;;;;;12.97;90.10;99692.38;4935430;29;20062;-70
2023/11/06 05:25:15;;;;;;;14.10;2.72;;;;;;;13.16;90.19;99690.53;4935210;29;20047;-71
2023/11/06 05:27:42;;;;;;;13.88;2.90;;;;;;;13.31;89.57;99686.19;4934928;29;20415;-71
2023/11/06 05:30:10;;;;;;;16.30;2.47;;;;;;;13.15;86.94;99683.41;4933863;29;20056;-70
2023/11/06 05:32:37;;;;;;;15.07;3.05;;;;;;;12.88;88.06;99678.72;4942541;29;20051;-70
2023/11/06 05:35:05;;;;;;;11.70;2.88;;;;;;;12.94;89.19;99677.28;4986235;28;20055;-69
2023/11/06 05:37:32;;;;;;;17.77;3.05;;;;;;;12.64;91.49;99675.25;4957680;29;20051;-69
2023/11/06 05:40:00;;;;;;;17.42;3.35;;;;;;;12.91;90.97;99680.75;4953767;28;20491;-70
2023/11/06 05:42:27;;;;;;;20.48;3.25;;;;;;;13.16;89.40;99673.94;4937496;29;20392;-70
2023/11/06 05:44:54;;;;;;;12.63;2.45;;;;;;;13.28;89.34;99675.84;4938850;29;20048;-71
2023/11/06 05:47:21;;;;;;;17.08;2.88;;;;;;;13.08;89.51;99682.41;4936718;29;20062;-70
2023/11/06 05:49:49;;;;;;;11.35;2.78;;;;;;;13.24;88.36;99686.00;4940834;29;20056;-70
2023/11/06 05:52:16;;;;;;;16.42;2.67;;;;;;;13.29;89.02;99685.72;4939311;28;20063;-69
2023/11/06 05:54:43;;;;;;;13.52;2.65;;;;;;;13.01;86.67;99693.25;4941472;29;20414;-71
2023/11/06 05:57:11;;;;;;;13.95;2.47;;;;;;;13.04;88.96;99690.59;4957750;28;20051;-70
2023/11/06 05:59:38;;;;;;;13.57;2.88;;;;;;;13.21;88.85;99682.00;4959144;29;20062;-70
2023/11/06 06:02:05;;;;;;;15.68;2.80;;;;;;;12.78;86.40;99690.25;4941613;29;20052;-70
2023/11/06 06:04:33;;;;;;;12.23;2.28;;;;;;;13.11;88.81;99690.78;4939701;29;20055;-71
2023/11/06 06:07:00;;;;;;;14.27;2.20;;;;;;;13.40;87.65;99700.63;4953033;28;20388;-72
2023/11/06 06:09:27;;;;;;;14.55;2.58;;;;;;;13.58;85.76;99705.44;4953673;28;20074;-70
2023/11/06 06:11:55;;;;;;;15.85;2.50;;;;;;;13.84;85.81;99707.69;4938400;29;20071;-71
2023/11/06 06:14:22;;;;;;;11.18;2.38;;;;;;;13.29;84.65;99713.38;4938532;29;20055;-70
2023/11/06 06:16:49;;;;;;;14.80;3.00;;;;;;;13.09;86.95;99712.47;4938566;28;20132;-63
2023/11/06 06:19:18;;;;;;;12.00;2.45;;;;;;;13.38;87.27;99714.84;4937431;29;20051;-63
2023/11/06 06:21:45;;;;;;;12.32;2.20;;;;;;;12.92;86.27;99715.53;4968430;28;20151;-62
2023/11/06 06:24:13;;;;;;;11.30;2.25;;;;;;;13.07;87.62;99731.38;4937975;29;20055;-62
2023/11/06 06:26:40;;;;;;;10.63;2.05;;;;;;;13.20;87.61;99715.50;4938293;29;20444;-69
2023/11/06 06:29:08;;;;;;;11.98;2.47;;;;;;;13.06;87.95;99713.19;4953244;28;20725;-62
2023/11/06 06:31:38;;;;;;;9.63;2.28;;;;;;;13.17;86.45;99725.34;4965971;28;20058;-62
2023/11/06 06:34:06;;;;;;;12.50;2.47;;;;;;;13.31;85.32;99716.59;4956989;28;20071;-61
2023/11/06 06:36:33;;;;;;;15.35;2.63;;;;;;;13.29;85.89;99718.91;4955803;29;20134;-62
2023/11/06 06:39:05;;;;;;;9.50;2.28;;;;;;;13.21;84.74;99717.94;4961583;28;20055;-62
2023/11/06 06:41:32;;;;;;;12.85;2.80;;;;;;;13.20;84.99;99719.09;4937859;29;20059;-70
2023/11/06 06:43:59;;;;;;;12.75;2.70;;;;;;;13.31;86.72;99716.59;4967330;28;20416;-70
2023/11/06 06:46:27;;;;;;;12.95;2.33;;;;;;;13.19;86.61;99717.50;4936793;29;20052;-72
2023/11/06 06:48:55;;;;;;;10.05;2.10;;;;;;;13.11;86.10;99718.44;4937861;29;20519;-71
2023/11/06 06:51:24;;;;;;;11.13;2.00;;;;;;;13.36;86.23;99717.16;4921752;28;20060;-71
2023/11/06 06:53:52;;;;;;;15.07;2.42;;;;;;;13.21;83.51;99723.47;4946036;29;20056;-71
2023/11/06 06:56:20;;;;;;;10.68;1.95;;;;;;;13.32;85.75;99724.53;4985241;28;20054;-70
2023/11/06 06:58:47;;;;;;;8.18;1.63;;;;;;;13.27;85.24;99733.09;4936991;29;20056;-62
2023/11/06 07:01:18;;;;;;;12.23;2.20;;;;;;;13.34;85.83;99732.47;4937643;29;20062;-62
2023/11/06 07:03:45;;;;;;;11.75;1.80;;;;;;;13.57;85.21;99739.81;4980289;28;20055;-62
2023/11/06 07:06:15;;;;;;;11.00;2.47;;;;;;;13.52;84.94;99742.88;4942268;29;20565;-70
2023/11/06 07:08:43;;;;;;;;;;;;;;;13.36;83.56;99746.75;4937925;29;20511;-71
2023/11/06 07:11:10;;;;;;;12.15;2.10;;;;;;;13.45;84.67;99753.75;4951781;29;19923;-70
2023/11/06 07:13:37;;;;;;;10.25;2.10;;;;;;;13.68;85.43;99753.13;4951245;29;20048;-71
2023/11/06 07:16:11;;;;;;;9.55;2.03;;;;;;;13.45;86.14;99759.28;4936544;29;20052;-70
2023/11/06 07:18:55;;;;;;;9.48;1.95;;;;;;;13.62;83.78;99755.34;4935009;29;20040;-70
2023/11/06 07:21:23;;;;;;;11.80;1.90;;;;;;;13.42;85.44;99759.19;4936775;29;20092;-70
2023/11/06 07:23:50;;;;;;;9.60;1.80;;;;;;;13.37;85.04;99762.22;4936535;29;20063;-71
2023/11/06 07:26:18;;;;;;;10.05;1.92;;;;;;;13.70;86.45;99756.34;4935614;29;20051;-69
2023/11/06 07:28:45;;;;;;;12.65;1.67;;;;;;;13.57;85.59;99755.63;4966952;28;20052;-69
2023/11/06 07:31:12;;;;;;;10.18;2.08;;;;;;;13.45;86.03;99759.28;4934797;29;20060;-70
2023/11/06 07:33:40;;;;;;;5.47;2.33;;;;;;;13.45;88.33;99756.50;4949479;29;20055;-69
2023/11/06 07:36:08;;;;;;;10.68;2.53;;;;;;;13.61;89.36;99764.81;4966917;28;20059;-70
2023/11/06 07:38:36;;;;;;;8.10;1.70;;;;;;;13.48;87.50;99771.56;4936292;29;20531;-70
2023/11/06 07:41:10;;;;;;;10.63;1.98;;;;;;;13.55;90.38;99769.81;4934743;29;20043;-69
2023/11/06 07:43:40;;;;;;;9.48;1.80;;;;;;;13.68;90.44;99783.56;4934823;29;20548;-69
2023/11/06 07:46:07;;;;;;;8.40;1.60;;;;;;;13.82;89.63;99795.81;4950646;28;20059;-66
2023/11/06 07:48:36;;;;;;;10.68;1.50;;;;;;;13.58;87.80;99795.97;4950173;29;20047;-67
2023/11/06 07:51:03;;;;;;;9.85;1.90;;;;;;;13.43;87.76;99788.44;4949609;29;20057;-65
2023/11/06 07:53:30;;;;;;;7.47;1.75;;;;;;;13.81;89.29;99801.69;4930946;29;20053;-64
2023/11/06 07:56:02;;;;;;;6.60;1.75;;;;;;;13.79;86.88;99806.78;4932865;29;20040;-64
2023/11/06 07:58:30;;;;;;;7.85;1.83;;;;;;;14.08;88.44;99809.91;4937145;28;20043;-63
2023/11/06 08:00:58;;;;;;;4.95;1.30;;;;;;;13.78;85.77;99814.28;4937644;29;20058;-65
2023/11/06 08:03:25;;;;;;;5.72;1.42;;;;;;;13.80;87.98;99823.03;4936452;29;20651;-65
2023/11/06 08:05:52;;;;;;;8.80;1.63;;;;;;;13.94;86.58;99826.16;4944925;29;20054;-63
2023/11/06 08:08:20;;;;;;;11.35;1.83;;;;;;;13.22;83.13;99832.09;4977021;28;20047;-63
2023/11/06 08:10:48;;;;;;;10.73;2.22;;;;;;;13.92;88.67;99822.94;4945070;29;20043;-64
2023/11/06 08:13:19;;;;;;;9.48;2.38;;;;;;;14.09;86.74;99821.75;4939691;29;20051;-65
2023/11/06 08:15:46;;;;;;;;;;;;;;;14.02;84.05;99827.13;4935737;29;20055;-63
2023/11/06 08:18:14;;;;;;;10.63;1.52;;;;;;;13.96;84.13;99832.16;4937883;29;19935;-63
2023/11/06 08:20:41;;;;;;;10.40;1.58;;;;;;;13.69;81.27;99837.72;4944431;29;20578;-62
2023/11/06 08:23:09;;;;;;;5.18;1.40;;;;;;;13.89;84.90;99843.03;4967593;28;20066;-62
2023/11/06 08:25:37;;;;;;;9.15;1.80;;;;;;;13.81;83.90;99834.91;4936283;29;20047;-63
2023/11/06 08:28:05;;;;;;;8.82;1.30;;;;;;;13.89;81.20;99848.59;4946148;29;20066;-64
2023/11/06 08:30:33;;;;;;;6.95;1.40;;;;;;;14.15;82.15;99850.81;4939204;29;20043;-64
2023/11/06 08:33:00;;;;;;;6.50;1.70;;;;;;;14.06;80.39;99851.00;4952380;28;20078;-63
2023/11/06 08:35:36;;;;;;;10.65;1.73;;;;;;;14.15;79.69;99848.03;4949283;28;20434;-65
2023/11/06 08:39:04;;;;;;;7.38;1.70;;;;;;;14.19;79.56;99848.94;4972903;28;20055;-63
2023/11/06 08:42:08;;;;;;;7.10;1.60;;;;;;;13.90;75.89;99852.94;4921299;29;20384;-63
2023/11/06 08:44:35;;;;;;;7.90;1.80;;;;;;;14.27;79.74;99856.28;4952183;28;20060;-63
2023/11/06 08:47:15;;;;;;;4.32;1.05;;;;;;;14.02;77.19;99863.94;4985067;28;20052;-63
2023/11/06 08:50:21;;;;;;;9.13;1.33;;;;;;;14.06;77.89;99856.53;4924209;29;20044;-65
2023/11/06 08:53:57;;;;;;;8.07;1.38;;;;;;;14.51;78.73;99861.59;4884599;28;20075;-61
2023/11/06 08:56:26;;;;;;;6.78;1.30;;;;;;;14.53;77.68;99851.78;4957735;28;20051;-62
2023/11/06 08:58:53;;;;;;;13.17;3.67;;;;;;;14.23;75.70;99858.13;4936237;28;20063;-64
2023/11/06 09:01:21;;;;;;;8.07;2.50;;;;;;;14.51;77.93;99858.84;4937807;29;20051;-66
2023/11/06 09:03:48;;;;;;;7.95;2.60;;;;;;;14.50;78.97;99858.06;4927300;29;20058;-64
2023/11/06 09:06:22;;;;;;;14.18;3.55;;;;;;;14.10;74.33;99849.13;4979826;28;20043;-64
2023/11/06 09:08:50;;;;;;;6.38;1.40;;;;;;;14.37;78.30;99866.81;4954420;28;20423;-64
2023/11/06 09:11:17;;;;;;;8.50;1.40;;;;;;;14.29;76.73;99853.97;4953708;29;20054;-64
2023/11/06 09:13:44;;;;;;;8.05;1.50;;;;;;;14.14;76.97;99874.91;4939061;29;20058;-64
2023/11/06 09:16:11;;;;;;;8.13;1.77;;;;;;;14.53;79.16;99870.38;4973069;28;20067;-62
2023/11/06 09:18:39;;;;;;;7.68;1.55;;;;;;;14.08;73.91;99870.00;4935862;29;20064;-64
2023/11/06 09:21:13;;;;;;;5.53;1.10;;;;;;;13.67;75.77;99884.34;4951005;29;20525;-63
2023/11/06 09:23:41;;;;;;;6.13;1.65;;;;;;;13.70;75.04;99881.69;4948730;29;20055;-62
2023/11/06 09:26:09;;;;;;;10.27;1.70;;;;;;;13.77;75.71;99889.38;4947446;29;20059;-64
2023/11/06 09:28:38;;;;;;;7.97;1.33;;;;;;;13.91;77.44;99879.50;4968427;28;20059;-61
2023/11/06 09:31:07;;;;;;;12.40;1.88;;;;;;;13.92;76.17;99894.09;4952889;28;20044;-62
2023/11/06 09:33:35;;;;;;;5.43;1.63;;;;;;;14.40;76.96;99894.59;4940712;29;20402;-61
2023/11/06 09:36:03;;;;;;;7.43;1.55;;;;;;;14.21;75.40;99902.00;4938482;29;20052;-61
2023/11/06 09:38:30;;;;;;;10.40;1.85;;;;;;;14.27;75.51;99886.75;4948689;29;20055;-61
2023/11/06 09:40:58;;;;;;;7.03;1.50;;;;;;;14.43;76.50;99904.19;4947800;29;20066;-62
2023/11/06 09:43:25;;;;;;;9.13;1.77;;;;;;;14.48;75.68;99901.94;4940999;29;20047;-61
2023/11/06 09:45:52;;;;;;;7.30;2.22;;;;;;;14.75;75.27;99905.72;4944245;29;20059;-62
2023/11/06 09:48:21;;;;;;;9.05;2.53;;;;;;;14.30;74.48;99910.97;4939649;29;20052;-62
2023/11/06 09:50:49;;;;;;;9.27;2.28;;;;;;;14.29;74.51;99914.91;4950955;29;20059;-61
2023/11/06 09:53:17;;;;;;;9.45;1.98;;;;;;;14.25;74.73;99917.56;4972480;28;20047;-61
2023/11/06 09:55:45;;;;;;;7.55;2.13;;;;;;;14.00;75.47;99918.06;4968459;28;20545;-62
2023/11/06 09:58:13;;;;;;;9.38;2.05;;;;;;;14.52;76.13;99918.66;4943301;29;20058;-61
2023/11/06 10:00:43;;;;;;;9.52;1.73;;;;;;;14.34;74.33;99925.72;4957165;29;20047;-61
2023/11/06 10:03:16;;;;;;;9.43;1.67;;;;;;;14.38;75.11;99937.69;4972864;28;20055;-63
2023/11/06 10:05:44;;;;;;;13.30;1.95;;;;;;;14.73;74.04;99930.25;4961699;28;20051;-62
2023/11/06 10:08:30;;;;;;;11.10;2.00;;;;;;;14.72;72.07;99933.38;4980289;28;20086;-63
2023/11/06 10:11:05;;;;;;;8.20;1.83;;;;;;;14.43;70.82;99940.19;4929131;29;20055;-64
2023/11/06 10:13:50;;;;;;;9.65;1.80;;;;;;;14.38;72.41;99946.00;4964299;28;20055;-62
2023/11/06 10:16:22;;;;;;;10.50;1.92;;;;;;;14.45;71.93;99948.97;4948673;28;20047;-64
2023/11/06 10:18:51;;;;;;;7.40;1.70;;;;;;;14.68;72.75;99947.13;4953274;28;20056;-62
2023/11/06 10:21:29;;;;;;;11.50;2.13;;;;;;;14.50;73.45;99943.97;4942886;28;20058;-62
2023/11/06 10:24:00;;;;;;;19.00;7.82;;;;;;;14.58;73.44;99950.47;4949235;28;20051;-63
2023/11/06 10:26:31;;;;;;;11.57;2.08;;;;;;;14.04;72.91;99952.19;4937329;29;20039;-62
2023/11/06 10:29:09;;;;;;;9.55;1.83;;;;;;;14.10;75.02;99950.78;4968432;28;20051;-62
2023/11/06 10:31:43;;;;;;;9.65;1.60;;;;;;;14.39;74.68;99950.38;4941761;29;20506;-62
2023/11/06 10:34:32;;;;;;;10.25;2.40;;;;;;;14.95;71.07;99949.00;4952143;28;20448;-62
2023/11/06 10:37:10;;;;;;;11.05;2.20;;;;;;;15.06;72.00;99954.78;4951542;29;20503;-62
2023/11/06 10:39:39;;;;;;;7.90;1.90;;;;;;;15.17;71.49;99955.81;4956725;29;20047;-61
2023/11/06 10:42:09;;;;;;;10.07;1.92;;;;;;;15.15;71.14;99956.19;4951115;28;20051;-62
2023/11/06 10:44:37;;;;;;;10.25;2.35;;;;;;;15.28;70.88;99951.31;4938940;29;20040;-62
2023/11/06 10:47:08;;;;;;;10.98;2.22;;;;;;;15.13;69.47;99952.16;4937003;28;20534;-63
2023/11/06 10:49:43;;;;;;;10.63;2.63;;;;;;;14.91;69.12;99953.63;4939930;29;20063;-62
2023/11/06 10:52:11;;;;;;;12.05;2.10;;;;;;;14.96;69.79;99953.38;4971987;28;20047;-61
2023/11/06 10:54:39;;;;;;;8.60;1.77;;;;;;;15.31;69.45;99956.94;4938474;29;20083;-61
2023/11/06 10:57:09;;;;;;;13.77;2.47;;;;;;;15.31;68.50;99965.25;4949138;28;20060;-62
2023/11/06 10:59:37;;;;;;;11.43;2.45;;;;;;;15.31;68.26;99945.03;4945862;29;20699;-63
2023/11/06 11:02:06;;;;;;;10.48;2.17;;;;;;;15.38;69.03;99948.78;4941355;28;20059;-62
2023/11/06 11:04:33;;;;;;;19.10;2.40;;;;;;;15.41;68.71;99947.28;4933224;29;20051;-62
2023/11/06 11:07:04;;;;;;;10.00;2.17;;;;;;;15.29;67.00;99948.16;4967923;28;20064;-61
2023/11/06 11:09:32;;;;;;;10.05;2.42;;;;;;;15.53;68.71;99945.16;4969773;28;20051;-61
2023/11/06 11:12:01;;;;;;;11.38;1.90;;;;;;;15.43;68.17;99944.94;4947025;28;20055;-62
2023/11/06 11:14:29;;;;;;;10.70;1.67;;;;;;;15.87;66.10;99950.97;4958078;28;20159;-62
2023/11/06 11:17:07;;;;;;;10.30;2.00;;;;;;;16.03;66.85;99952.50;4975789;28;20426;-61
2023/11/06 11:19:35;;;;;;;12.25;2.40;;;;;;;15.88;64.28;99944.28;4941275;29;20051;-61
2023/11/06 11:22:04;;;;;;;9.50;2.30;;;;;;;15.97;66.17;99953.19;4953047;29;20055;-61
2023/11/06 11:24:56;;;;;;;14.10;4.65;;;;;;;16.19;67.33;99953.22;4935652;29;20048;-62
2023/11/06 11:27:26;;;;;;;16.25;4.80;;;;;;;15.79;63.08;99956.38;4939939;29;20147;-61
2023/11/06 11:29:53;;;;;;;15.90;5.50;;;;;;;15.96;64.50;99948.78;4969553;28;20068;-62
2023/11/06 11:32:51;;;;;;;13.05;5.47;;;;;;;16.17;65.84;99943.63;4950284;28;20063;-62
2023/11/06 11:35:23;;;;;;;12.32;5.53;;;;;;;15.53;63.24;99942.38;4934507;29;20384;-62
2023/11/06 11:37:58;;;;;;;17.63;5.88;;;;;;;15.80;67.90;99943.31;4977640;28;20066;-62